Time;durP1;ratioP1;P1;durP2;ratioP2;P2;SDS_P1;SDS_P2;PMS_P1;PMS_P2;Temp;Humidity;BMP_temperature;BMP_pressure;BME280_temperature;BME280_humidity;BME280_pressure;Samples;Min_cycle;Max_cycle;Signal;HPM_P1;HPM_P2
2023/04/11 00:04:33;;;;;;;2.78;1.55;;;;;;;10.72;62.80;99424.22;10344716;28;20038;-59
2023/04/11 00:09:35;;;;;;;3.47;1.80;;;;;;;10.54;63.41;99410.63;10346813;28;20054;-59
2023/04/11 00:14:37;;;;;;;2.90;1.70;;;;;;;10.47;63.64;99427.66;10345817;28;20418;-59
2023/04/11 00:19:39;;;;;;;4.45;1.85;;;;;;;10.54;63.47;99431.53;10345908;28;20057;-59
2023/04/11 00:24:40;;;;;;;4.30;1.70;;;;;;;10.42;63.87;99421.88;10345709;28;20054;-59
2023/04/11 00:29:42;;;;;;;4.22;1.70;;;;;;;10.31;64.11;99433.09;10344530;28;20046;-59
2023/04/11 00:34:44;;;;;;;4.80;1.92;;;;;;;10.18;64.58;99436.59;10345619;28;20042;-59
2023/04/11 00:39:49;;;;;;;4.30;1.80;;;;;;;10.20;64.47;99437.31;10344518;28;20052;-59
2023/04/11 00:44:51;;;;;;;3.90;1.40;;;;;;;10.00;63.13;99401.22;10344804;28;20673;-59
2023/04/11 00:49:52;;;;;;;4.20;1.48;;;;;;;10.14;63.41;99430.72;10345346;28;20052;-59
2023/04/11 00:54:54;;;;;;;5.57;1.50;;;;;;;10.20;62.82;99401.59;10368694;28;20057;-59
2023/04/11 00:59:57;;;;;;;3.95;1.38;;;;;;;10.08;63.27;99398.94;10346008;28;20048;-59
2023/04/11 01:04:59;;;;;;;3.17;1.60;;;;;;;9.89;63.54;99404.53;10345047;28;20136;-59
2023/04/11 01:10:02;;;;;;;4.30;1.38;;;;;;;9.75;63.84;99409.00;10345445;28;20045;-59
2023/04/11 01:15:05;;;;;;;2.72;1.30;;;;;;;9.51;64.13;99403.53;10357416;28;20049;-59
2023/04/11 01:20:08;;;;;;;4.40;1.35;;;;;;;9.65;63.60;99346.88;10376633;28;20049;-59
2023/04/11 01:25:11;;;;;;;3.38;1.40;;;;;;;9.54;63.53;99375.44;10372523;28;20505;-59
2023/04/11 01:30:13;;;;;;;2.58;1.30;;;;;;;9.41;62.74;99378.94;10343482;28;20081;-59
2023/04/11 01:35:16;;;;;;;3.53;1.30;;;;;;;9.40;62.64;99365.03;10364908;28;20068;-59
2023/04/11 01:40:20;;;;;;;3.05;1.20;;;;;;;9.27;62.83;99377.22;10350727;28;20461;-60
2023/04/11 01:45:22;;;;;;;2.90;1.30;;;;;;;9.19;62.91;99382.09;10353568;28;20049;-60
2023/04/11 01:50:24;;;;;;;6.85;1.65;;;;;;;9.33;62.29;99413.38;10355993;28;21234;-60
2023/04/11 01:55:26;;;;;;;4.22;1.35;;;;;;;9.20;62.79;99430.69;10364447;28;20064;-60
2023/04/11 02:00:28;;;;;;;3.88;1.30;;;;;;;9.13;63.20;99431.19;10352008;28;20046;-60
2023/04/11 02:05:30;;;;;;;3.65;1.10;;;;;;;9.10;63.28;99406.13;10373744;28;20045;-60
2023/04/11 02:10:31;;;;;;;2.58;1.08;;;;;;;9.05;63.31;99402.97;10356632;28;20068;-60
2023/04/11 02:15:33;;;;;;;4.43;1.40;;;;;;;9.06;63.53;99443.75;10356065;28;20046;-60
2023/04/11 02:20:39;;;;;;;3.35;1.50;;;;;;;9.24;63.30;99407.91;10358426;28;20513;-60
2023/04/11 02:25:41;;;;;;;5.10;1.60;;;;;;;9.19;63.42;99402.09;10362219;28;20052;-60
2023/04/11 02:30:43;;;;;;;3.85;1.13;;;;;;;9.13;63.58;99403.34;10398275;28;20277;-60
2023/04/11 02:35:46;;;;;;;3.42;1.25;;;;;;;9.13;63.41;99421.59;10367451;28;20529;-60
2023/04/11 02:40:47;;;;;;;3.38;1.40;;;;;;;9.21;63.28;99419.34;10357048;28;20296;-60
2023/04/11 02:45:49;;;;;;;4.03;1.30;;;;;;;9.28;63.00;99412.78;10354755;28;20057;-60
2023/04/11 02:50:57;;;;;;;5.90;1.30;;;;;;;9.31;62.81;99433.50;10355063;28;20324;-60
2023/04/11 02:55:59;;;;;;;3.00;1.20;;;;;;;9.22;62.93;99399.31;10354505;28;20145;-60
2023/04/11 03:01:02;;;;;;;3.72;1.20;;;;;;;9.26;62.78;99395.59;10355081;28;20052;-60
2023/04/11 03:06:05;;;;;;;4.38;1.30;;;;;;;9.15;62.95;99411.91;10351835;28;20056;-60
2023/04/11 03:11:08;;;;;;;3.20;1.30;;;;;;;9.03;62.87;99430.06;10344965;28;20569;-61
2023/04/11 03:16:12;;;;;;;2.80;1.17;;;;;;;9.01;63.18;99432.78;10345816;28;20057;-60
2023/04/11 03:21:15;;;;;;;6.53;1.40;;;;;;;8.92;63.18;99419.44;10356749;28;20331;-60
2023/04/11 03:26:18;;;;;;;2.58;1.33;;;;;;;8.82;63.59;99413.97;10326067;28;20054;-60
2023/04/11 03:31:20;;;;;;;3.17;1.30;;;;;;;8.78;63.69;99433.34;10343057;28;20042;-60
2023/04/11 03:36:28;;;;;;;3.13;1.10;;;;;;;8.75;63.54;99438.75;10345670;28;20049;-60
2023/04/11 03:41:36;;;;;;;5.43;1.50;;;;;;;8.70;63.29;99430.34;10341368;28;20040;-60
2023/04/11 03:46:40;;;;;;;3.83;1.30;;;;;;;8.52;63.60;99434.91;10344124;28;20050;-60
2023/04/11 03:51:43;;;;;;;4.50;1.35;;;;;;;8.49;63.83;99426.41;10362189;28;20053;-60
2023/04/11 03:56:45;;;;;;;3.53;1.35;;;;;;;8.49;63.76;99432.47;10364948;28;20042;-60
2023/04/11 04:01:53;;;;;;;2.83;1.40;;;;;;;8.41;64.03;99444.25;10347471;28;20546;-60
2023/04/11 04:06:56;;;;;;;3.60;1.20;;;;;;;8.35;63.85;99461.09;10378224;28;20152;-60
2023/04/11 04:12:06;;;;;;;3.50;1.55;;;;;;;8.26;64.01;99466.00;10360523;28;20140;-60
2023/04/11 04:17:28;;;;;;;5.85;1.77;;;;;;;8.22;64.01;99467.13;10361674;28;20053;-60
2023/04/11 04:22:30;;;;;;;7.38;1.65;;;;;;;8.13;64.04;99465.03;10328294;28;20081;-60
2023/04/11 04:27:34;;;;;;;6.78;2.13;;;;;;;8.15;63.88;99479.63;10371425;28;20052;-60
2023/04/11 04:32:36;;;;;;;6.38;2.08;;;;;;;8.15;63.92;99477.03;10355529;28;20061;-60
2023/04/11 04:37:44;;;;;;;7.88;2.33;;;;;;;8.10;63.72;99493.81;10374569;28;20049;-60
2023/04/11 04:42:57;;;;;;;;;;;;;;;7.74;65.04;99492.34;10367126;28;20126;-60
2023/04/11 04:48:13;;;;;;;7.88;2.00;;;;;;;7.93;63.53;99494.78;10366457;28;20176;-60
2023/04/11 04:53:15;;;;;;;7.75;1.98;;;;;;;7.89;63.65;99501.06;10350187;28;20539;-60
2023/04/11 04:58:22;;;;;;;7.93;2.63;;;;;;;8.01;63.59;99498.63;10377153;28;20134;-60
2023/04/11 05:03:24;;;;;;;7.32;1.90;;;;;;;7.93;63.81;99507.78;10348478;28;20050;-60
2023/04/11 05:08:26;;;;;;;10.27;2.05;;;;;;;7.98;63.71;99505.75;10390380;28;20435;-60
2023/04/11 05:13:32;;;;;;;10.20;2.72;;;;;;;8.03;63.22;99511.56;10360961;28;20053;-60
2023/04/11 05:18:36;;;;;;;9.07;2.20;;;;;;;8.01;62.88;99510.81;10373972;28;20128;-60
2023/04/11 05:23:39;;;;;;;8.52;1.92;;;;;;;8.05;62.52;99522.72;10367082;28;20038;-60
2023/04/11 05:28:41;;;;;;;11.93;2.58;;;;;;;8.03;62.46;99525.44;10379392;28;20050;-60
2023/04/11 05:33:47;;;;;;;13.00;2.10;;;;;;;8.19;62.18;99521.97;10356898;28;20046;-60
2023/04/11 05:38:49;;;;;;;9.18;2.00;;;;;;;8.42;61.99;99521.53;10356584;28;20145;-60
2023/04/11 05:43:51;;;;;;;10.85;2.25;;;;;;;8.64;61.38;99524.56;10357656;28;20454;-60
2023/04/11 05:48:53;;;;;;;10.73;2.22;;;;;;;8.99;61.02;99528.53;10380796;28;20103;-60
2023/04/11 05:53:55;;;;;;;10.82;2.28;;;;;;;9.25;60.42;99538.25;10377480;28;20738;-60
2023/04/11 05:58:57;;;;;;;9.32;2.20;;;;;;;9.43;59.71;99542.34;10373821;28;20479;-60
2023/04/11 06:03:59;;;;;;;7.68;2.10;;;;;;;9.38;59.39;99548.78;10359366;28;20038;-60
2023/04/11 06:09:01;;;;;;;12.00;2.80;;;;;;;9.07;59.55;99564.59;10373812;28;20041;-61
2023/04/11 06:14:03;;;;;;;11.43;2.20;;;;;;;9.09;59.64;99565.34;10362308;28;20726;-60
2023/04/11 06:19:05;;;;;;;8.93;2.28;;;;;;;9.26;59.18;99560.78;10354336;28;20038;-60
2023/04/11 06:24:08;;;;;;;13.40;2.80;;;;;;;9.34;58.45;99550.72;10333954;28;20042;-60
2023/04/11 06:29:10;;;;;;;14.40;2.80;;;;;;;9.42;57.88;99553.72;10346769;28;20410;-60
2023/04/11 06:34:12;;;;;;;13.45;2.60;;;;;;;9.36;57.75;99558.47;10351440;28;20478;-60
2023/04/11 06:39:18;;;;;;;11.90;3.10;;;;;;;9.44;57.46;99570.13;10355063;28;20125;-60
2023/04/11 06:44:19;;;;;;;12.50;2.92;;;;;;;9.55;56.48;99574.69;10346090;28;20046;-60
2023/04/11 06:49:21;;;;;;;9.52;2.45;;;;;;;9.87;55.85;99584.00;10354359;28;20056;-60
2023/04/11 06:54:23;;;;;;;13.68;2.70;;;;;;;9.72;56.01;99592.81;10360241;28;20042;-60
2023/04/11 06:59:25;;;;;;;12.65;2.80;;;;;;;9.72;55.60;99600.66;10349120;28;20064;-60
2023/04/11 07:04:28;;;;;;;15.45;3.10;;;;;;;9.79;55.20;99593.28;10348182;28;20053;-60
2023/04/11 07:09:30;;;;;;;14.85;3.88;;;;;;;10.30;54.27;99603.03;10348429;28;20041;-60
2023/04/11 07:14:32;;;;;;;17.83;3.10;;;;;;;10.35;53.79;99608.84;10347857;28;20481;-60
2023/04/11 07:19:34;;;;;;;11.93;3.08;;;;;;;10.14;53.92;99618.88;10356871;28;20482;-61
2023/04/11 07:24:36;;;;;;;17.23;2.38;;;;;;;9.88;53.53;99617.06;10346662;28;20042;-61
2023/04/11 07:29:37;;;;;;;14.10;2.90;;;;;;;10.50;52.81;99616.53;10353649;28;20423;-61
2023/04/11 07:34:39;;;;;;;12.32;2.67;;;;;;;10.82;51.27;99624.06;10347538;28;20052;-61
2023/04/11 07:39:41;;;;;;;12.82;2.80;;;;;;;10.40;51.48;99620.66;10364708;28;20049;-60
2023/04/11 07:44:43;;;;;;;17.00;2.55;;;;;;;10.79;50.96;99630.34;10343979;28;20052;-60
2023/04/11 07:49:45;;;;;;;14.55;2.70;;;;;;;10.82;50.87;99622.31;10365420;28;20596;-60
2023/04/11 07:54:46;;;;;;;12.98;2.70;;;;;;;11.32;50.38;99631.22;10381158;28;20054;-59
2023/04/11 07:59:48;;;;;;;12.15;2.50;;;;;;;11.22;49.78;99641.44;10371580;28;20128;-60
2023/04/11 08:04:50;;;;;;;10.65;2.65;;;;;;;11.27;49.94;99639.38;10367432;28;20053;-60
2023/04/11 08:09:52;;;;;;;7.38;2.05;;;;;;;11.35;49.01;99641.47;10375195;28;20062;-60
2023/04/11 08:14:53;;;;;;;8.85;2.05;;;;;;;11.26;49.12;99646.38;10346283;28;20048;-60
2023/04/11 08:19:56;;;;;;;11.88;2.30;;;;;;;11.43;49.21;99650.50;10361412;28;20517;-59
2023/04/11 08:24:58;;;;;;;14.18;3.00;;;;;;;11.60;48.05;99655.41;10344687;28;20413;-60
2023/04/11 08:30:00;;;;;;;12.70;2.58;;;;;;;11.55;48.39;99654.06;10347377;28;20065;-60
2023/04/11 08:35:03;;;;;;;11.65;2.53;;;;;;;11.36;48.53;99649.22;10345821;28;20080;-59
2023/04/11 08:40:05;;;;;;;9.07;2.50;;;;;;;11.27;48.26;99652.47;10384335;28;20041;-59
2023/04/11 08:45:09;;;;;;;10.23;2.13;;;;;;;11.95;47.36;99655.59;10367053;28;20460;-60
2023/04/11 08:50:10;;;;;;;10.52;1.98;;;;;;;12.58;45.82;99643.19;10343738;28;20144;-60
2023/04/11 08:55:12;;;;;;;9.00;2.35;;;;;;;12.86;45.43;99652.53;10359818;28;20052;-60
2023/04/11 09:00:17;;;;;;;8.77;2.97;;;;;;;12.74;45.43;99654.25;10348995;28;20048;-60
2023/04/11 09:05:24;;;;;;;8.30;2.95;;;;;;;13.09;42.88;99658.72;10343379;28;20468;-60
2023/04/11 09:10:26;;;;;;;9.75;2.20;;;;;;;13.12;43.80;99668.97;10344556;28;20054;-60
2023/04/11 09:15:30;;;;;;;8.05;2.10;;;;;;;13.18;43.59;99661.47;10358433;28;20580;-60
2023/04/11 09:20:32;;;;;;;6.88;1.90;;;;;;;13.32;42.68;99670.94;10366770;28;20533;-60
2023/04/11 09:25:43;;;;;;;4.22;1.55;;;;;;;13.42;41.68;99670.19;10342865;28;20042;-60
2023/04/11 09:30:51;;;;;;;9.57;1.92;;;;;;;13.68;40.10;99657.69;10369111;28;20041;-60
2023/04/11 09:35:55;;;;;;;8.13;1.90;;;;;;;14.16;39.77;99650.41;10378977;28;20050;-60
2023/04/11 09:40:59;;;;;;;8.60;1.90;;;;;;;14.62;39.11;99660.75;10371313;28;20049;-60
2023/04/11 09:46:11;;;;;;;9.68;2.00;;;;;;;14.46;37.99;99656.72;10355468;28;20132;-60
2023/04/11 09:51:14;;;;;;;5.88;1.60;;;;;;;14.15;38.30;99667.97;10345047;28;20050;-60
2023/04/11 09:56:33;;;;;;;6.18;1.77;;;;;;;13.37;38.56;99668.81;10381028;28;20175;-60
2023/04/11 10:01:38;;;;;;;6.03;1.85;;;;;;;14.24;37.44;99663.78;10383769;28;20321;-60
2023/04/11 10:07:01;;;;;;;7.35;1.95;;;;;;;14.27;34.26;99658.28;10358829;28;20413;-60
2023/04/11 10:12:03;;;;;;;8.77;1.80;;;;;;;13.44;36.31;99670.06;10392088;28;20440;-60
2023/04/11 10:17:13;;;;;;;7.20;1.65;;;;;;;12.72;40.60;99679.75;10392078;28;20305;-60
2023/04/11 10:22:45;;;;;;;9.52;2.03;;;;;;;13.61;41.93;99680.97;10353430;28;20038;-60
2023/04/11 10:27:49;;;;;;;8.50;1.90;;;;;;;14.44;40.28;99673.56;10348988;28;20034;-60
2023/04/11 10:33:11;;;;;;;7.18;1.90;;;;;;;15.07;37.65;99662.28;10356391;28;20055;-60
2023/04/11 10:38:42;;;;;;;6.13;1.70;;;;;;;14.76;36.70;99666.59;10390177;28;20048;-60
2023/04/11 10:43:44;;;;;;;6.07;1.92;;;;;;;14.70;36.91;99666.22;10390704;28;20049;-60
2023/04/11 10:49:01;;;;;;;5.60;1.70;;;;;;;14.19;33.90;99658.88;10356520;28;20054;-60
2023/04/11 10:54:03;;;;;;;7.07;1.73;;;;;;;14.27;34.58;99656.50;10379920;28;20061;-60
2023/04/11 10:59:29;;;;;;;6.40;1.70;;;;;;;13.68;34.23;99665.56;10353822;28;20045;-60
2023/04/11 11:04:38;;;;;;;6.35;2.10;;;;;;;13.58;33.73;99661.97;10351986;28;20045;-60
2023/04/11 11:09:47;;;;;;;5.95;1.50;;;;;;;13.76;30.93;99661.41;10357127;28;20506;-60
2023/04/11 11:14:48;;;;;;;4.90;1.50;;;;;;;14.09;33.17;99663.19;10349871;28;20046;-60
2023/04/11 11:19:50;;;;;;;5.30;1.73;;;;;;;14.11;33.43;99663.91;10386642;28;20503;-60
2023/04/11 11:24:52;;;;;;;5.65;1.52;;;;;;;14.33;31.09;99657.81;10365731;28;20558;-61
2023/04/11 11:29:54;;;;;;;6.25;1.80;;;;;;;14.08;32.05;99648.38;10383314;28;20057;-60
2023/04/11 11:34:56;;;;;;;7.25;1.90;;;;;;;13.99;31.95;99666.66;10366953;28;20069;-60
2023/04/11 11:40:20;;;;;;;4.38;1.50;;;;;;;14.08;32.19;99677.31;10368774;28;20115;-60
2023/04/11 11:45:22;;;;;;;8.43;1.70;;;;;;;14.12;32.84;99672.66;10360345;28;20090;-61
2023/04/11 11:50:31;;;;;;;3.60;1.48;;;;;;;13.97;31.73;99669.41;10347988;28;20445;-61
2023/04/11 11:55:33;;;;;;;4.60;1.45;;;;;;;13.72;32.64;99672.25;10343312;28;20044;-61
2023/04/11 12:00:37;;;;;;;5.25;1.40;;;;;;;13.77;32.16;99664.88;10350509;28;20145;-61
2023/04/11 12:05:40;;;;;;;5.85;1.55;;;;;;;14.17;31.19;99663.44;10347287;28;20034;-61
2023/04/11 12:10:45;;;;;;;4.65;1.50;;;;;;;14.59;31.45;99665.31;10346143;28;20045;-61
2023/04/11 12:15:53;;;;;;;5.90;1.67;;;;;;;14.87;30.87;99655.19;10335253;28;20172;-61
2023/04/11 12:20:55;;;;;;;5.22;1.50;;;;;;;15.20;30.53;99652.41;10336148;28;20043;-61
2023/04/11 12:25:57;;;;;;;5.40;1.42;;;;;;;15.32;29.67;99646.97;10336055;28;20054;-61
2023/04/11 12:30:58;;;;;;;6.60;1.58;;;;;;;15.87;29.09;99650.22;10348019;28;20177;-61
2023/04/11 12:36:00;;;;;;;5.03;1.60;;;;;;;15.72;28.09;99648.88;10344445;28;20079;-60
2023/04/11 12:41:02;;;;;;;5.60;1.60;;;;;;;15.84;27.67;99638.13;10343666;28;20084;-61
2023/04/11 12:46:25;;;;;;;6.85;1.65;;;;;;;15.60;27.92;99650.75;10349816;28;20049;-61
2023/04/11 12:51:26;;;;;;;6.68;1.60;;;;;;;15.56;27.96;99649.34;10337155;28;20383;-60
2023/04/11 12:56:28;;;;;;;3.75;1.35;;;;;;;15.56;29.24;99652.00;10350651;28;20538;-61
2023/04/11 13:01:30;;;;;;;4.40;1.40;;;;;;;16.28;27.51;99646.63;10343464;28;20140;-61
2023/04/11 13:06:32;;;;;;;6.53;1.75;;;;;;;15.83;28.46;99649.66;10346822;28;20076;-61
2023/04/11 13:11:34;;;;;;;5.90;1.70;;;;;;;15.95;29.08;99653.03;10336467;28;20060;-61
2023/04/11 13:16:37;;;;;;;6.53;1.60;;;;;;;15.48;28.61;99661.47;10340629;28;20078;-60
2023/04/11 13:21:39;;;;;;;6.03;1.60;;;;;;;15.52;28.74;99657.66;10336744;28;20503;-61
2023/04/11 13:26:43;;;;;;;6.15;1.50;;;;;;;15.63;28.13;99654.94;10330442;28;20530;-61
2023/04/11 13:31:45;;;;;;;4.65;1.42;;;;;;;15.88;28.38;99649.22;10338736;28;20065;-61
2023/04/11 13:36:48;;;;;;;5.55;1.67;;;;;;;15.39;27.97;99663.91;10340322;28;20082;-61
2023/04/11 13:41:50;;;;;;;4.75;1.70;;;;;;;15.76;29.33;99658.19;10342118;28;20079;-61
2023/04/11 13:46:52;;;;;;;4.10;1.48;;;;;;;15.64;27.78;99657.44;10348532;28;20164;-61
2023/04/11 13:51:53;;;;;;;5.25;1.45;;;;;;;15.60;28.67;99657.81;10347851;28;20050;-61
2023/04/11 13:56:55;;;;;;;6.90;1.60;;;;;;;16.08;27.93;99641.28;10345705;28;20324;-61
2023/04/11 14:01:57;;;;;;;7.22;1.73;;;;;;;16.11;27.33;99648.09;10357398;28;20056;-61
2023/04/11 14:06:59;;;;;;;5.65;1.60;;;;;;;15.94;27.78;99636.34;10347181;28;20164;-61
2023/04/11 14:12:01;;;;;;;7.45;2.53;;;;;;;15.89;27.46;99643.84;10345491;28;20046;-61
2023/04/11 14:17:02;;;;;;;5.15;1.40;;;;;;;15.86;26.68;99640.63;10351640;28;20038;-61
2023/04/11 14:22:04;;;;;;;7.45;1.52;;;;;;;16.08;27.67;99638.63;10344413;28;20378;-61
2023/04/11 14:27:07;;;;;;;5.13;1.50;;;;;;;16.41;26.67;99629.56;10346360;28;20046;-61
2023/04/11 14:32:09;;;;;;;6.15;1.55;;;;;;;16.30;26.89;99628.84;10339550;28;20236;-61
2023/04/11 14:37:11;;;;;;;6.20;1.60;;;;;;;15.59;27.03;99648.28;10350026;28;20053;-61
2023/04/11 14:42:13;;;;;;;4.65;1.60;;;;;;;15.76;26.63;99640.59;10323690;28;20046;-61
2023/04/11 14:47:15;;;;;;;7.25;1.48;;;;;;;16.00;27.09;99650.81;10340163;28;20053;-61
2023/04/11 14:52:16;;;;;;;4.47;1.60;;;;;;;15.91;26.85;99643.72;10354278;28;20105;-61
2023/04/11 14:57:21;;;;;;;6.93;1.60;;;;;;;15.43;26.35;99643.41;10361501;28;20049;-61
2023/04/11 15:02:23;;;;;;;5.65;1.50;;;;;;;15.81;27.45;99633.13;10349784;28;20429;-61
2023/04/11 15:07:25;;;;;;;6.22;1.73;;;;;;;16.12;26.56;99626.03;10353078;28;20135;-61
2023/04/11 15:12:27;;;;;;;3.17;1.40;;;;;;;16.13;26.95;99625.88;10396220;28;20054;-61
2023/04/11 15:17:29;;;;;;;7.88;2.03;;;;;;;15.69;27.65;99628.06;10342046;28;20153;-61
2023/04/11 15:22:30;;;;;;;5.55;1.48;;;;;;;15.26;28.73;99631.66;10348608;28;20149;-61
2023/04/11 15:27:32;;;;;;;5.18;1.50;;;;;;;15.23;29.18;99633.69;10376915;28;20543;-61
2023/04/11 15:32:35;;;;;;;5.65;1.52;;;;;;;15.07;29.47;99631.53;10364210;28;20076;-61
2023/04/11 15:37:37;;;;;;;4.75;1.50;;;;;;;14.94;29.83;99636.13;10364263;28;20065;-61
2023/04/11 15:42:40;;;;;;;3.80;1.33;;;;;;;14.78;30.15;99648.88;10364233;28;20042;-61
2023/04/11 15:47:41;;;;;;;5.63;1.40;;;;;;;14.51;30.66;99636.13;10370048;28;20057;-61
2023/04/11 15:52:43;;;;;;;5.43;1.50;;;;;;;14.57;30.68;99637.47;10344478;28;20417;-61
2023/04/11 15:57:45;;;;;;;4.50;1.88;;;;;;;14.71;29.65;99633.69;10342081;28;20517;-61
2023/04/11 16:02:48;;;;;;;8.90;1.80;;;;;;;14.62;29.92;99630.00;10352024;28;20508;-61
2023/04/11 16:07:50;;;;;;;6.00;1.60;;;;;;;14.13;30.61;99630.44;10374533;28;20300;-61
2023/04/11 16:12:52;;;;;;;3.72;1.60;;;;;;;13.84;31.38;99629.25;10377348;28;20390;-60
2023/04/11 16:17:54;;;;;;;6.68;3.40;;;;;;;13.77;31.40;99626.28;10376488;28;20057;-61
2023/04/11 16:22:56;;;;;;;6.97;1.80;;;;;;;13.88;32.05;99624.63;10376492;28;20400;-61
2023/04/11 16:27:57;;;;;;;3.85;1.48;;;;;;;13.75;31.79;99619.47;10367595;28;20042;-61
2023/04/11 16:32:59;;;;;;;4.95;1.58;;;;;;;13.70;31.68;99609.31;10340064;28;20057;-61
2023/04/11 16:38:01;;;;;;;5.32;1.60;;;;;;;13.76;31.80;99607.97;10367006;28;20574;-61
2023/04/11 16:43:03;;;;;;;7.80;1.77;;;;;;;13.76;31.95;99605.34;10372602;28;20131;-61
2023/04/11 16:48:06;;;;;;;7.25;1.52;;;;;;;13.49;32.25;99602.25;10341728;28;20056;-61
2023/04/11 16:53:08;;;;;;;6.05;1.65;;;;;;;13.22;32.93;99613.03;10387220;28;20057;-61
2023/04/11 16:58:10;;;;;;;8.05;1.70;;;;;;;13.11;33.19;99609.56;10342988;28;20119;-61
2023/04/11 17:03:12;;;;;;;6.70;1.70;;;;;;;13.10;33.85;99616.59;10344942;28;20455;-61
2023/04/11 17:08:16;;;;;;;5.57;1.80;;;;;;;13.13;34.40;99608.47;10344234;28;20057;-61
2023/04/11 17:13:18;;;;;;;5.63;1.60;;;;;;;12.89;34.69;99608.53;10358901;28;20618;-61
2023/04/11 17:18:20;;;;;;;5.55;1.70;;;;;;;12.43;36.37;99620.72;10360095;28;20037;-61
2023/04/11 17:23:21;;;;;;;5.97;1.33;;;;;;;12.40;36.77;99613.06;10333078;28;20076;-61
2023/04/11 17:28:39;;;;;;;4.43;1.33;;;;;;;12.30;37.71;99606.78;10350104;28;20490;-61
2023/04/11 17:33:41;;;;;;;6.43;1.52;;;;;;;12.27;37.72;99614.88;10343130;28;20846;-61
2023/04/11 17:38:44;;;;;;;7.13;1.75;;;;;;;12.21;37.89;99607.44;10356171;28;20107;-61
2023/04/11 17:43:46;;;;;;;3.85;1.40;;;;;;;12.18;38.40;99618.13;10346676;28;20170;-61
2023/04/11 17:48:48;;;;;;;3.78;1.58;;;;;;;12.02;39.32;99609.69;10334048;28;20054;-61
2023/04/11 17:53:49;;;;;;;5.03;1.42;;;;;;;11.94;39.01;99612.84;10351164;28;20127;-61
2023/04/11 17:58:51;;;;;;;5.35;1.40;;;;;;;11.93;39.57;99613.78;10351749;28;20857;-61
2023/04/11 18:03:53;;;;;;;5.22;1.45;;;;;;;11.82;39.72;99618.94;10348006;28;20433;-61
2023/04/11 18:08:55;;;;;;;4.72;1.50;;;;;;;11.73;40.38;99616.13;10360608;28;20085;-61
2023/04/11 18:13:57;;;;;;;5.38;1.60;;;;;;;11.60;41.21;99605.63;10361205;28;20049;-61
2023/04/11 18:18:59;;;;;;;6.45;1.80;;;;;;;11.49;41.93;99602.94;10349048;28;20050;-61
2023/04/11 18:24:02;;;;;;;5.47;1.80;;;;;;;11.42;41.71;99595.63;10346299;28;20050;-60
2023/04/11 18:29:04;;;;;;;4.13;1.63;;;;;;;11.27;42.13;99606.16;10348885;28;20041;-61
2023/04/11 18:34:06;;;;;;;7.28;2.05;;;;;;;11.09;42.76;99610.03;10384803;28;20045;-61
2023/04/11 18:39:09;;;;;;;7.22;2.05;;;;;;;10.94;43.41;99605.78;10372894;28;20049;-61
2023/04/11 18:44:11;;;;;;;5.70;1.80;;;;;;;10.87;43.45;99612.34;10351488;28;20042;-61
2023/04/11 18:49:13;;;;;;;6.68;1.85;;;;;;;10.76;43.52;99611.41;10344459;28;20459;-61
2023/04/11 18:54:20;;;;;;;4.45;1.80;;;;;;;10.68;43.78;99614.53;10340808;28;20053;-60
2023/04/11 18:59:24;;;;;;;9.05;2.38;;;;;;;10.56;44.42;99615.31;10344715;28;20188;-60
2023/04/11 19:04:32;;;;;;;7.78;3.78;;;;;;;10.51;45.08;99606.91;10345597;28;20621;-60
2023/04/11 19:09:34;;;;;;;6.28;2.47;;;;;;;10.42;45.37;99591.81;10344961;28;20041;-60
2023/04/11 19:14:36;;;;;;;7.32;2.13;;;;;;;10.34;45.48;99602.75;10342810;28;20045;-60
2023/04/11 19:19:38;;;;;;;7.68;2.70;;;;;;;10.13;46.04;99603.28;10337125;28;20037;-60
2023/04/11 19:24:40;;;;;;;5.35;2.25;;;;;;;10.00;47.11;99591.94;10343304;28;20046;-60
2023/04/11 19:29:41;;;;;;;5.30;2.10;;;;;;;9.95;46.89;99591.41;10355550;28;20514;-60
2023/04/11 19:34:44;;;;;;;7.38;2.17;;;;;;;9.94;46.91;99589.69;10363804;28;20349;-60
2023/04/11 19:39:46;;;;;;;8.05;2.38;;;;;;;9.97;47.33;99585.13;10366160;28;20034;-61
2023/04/11 19:44:48;;;;;;;7.20;2.10;;;;;;;9.89;47.53;99581.31;10340691;28;20041;-61
2023/04/11 19:49:50;;;;;;;7.53;2.28;;;;;;;9.84;47.70;99567.69;10350528;28;20041;-60
2023/04/11 19:54:54;;;;;;;5.28;2.70;;;;;;;9.77;47.79;99569.03;10341125;28;20064;-60
2023/04/11 19:59:56;;;;;;;5.45;2.63;;;;;;;9.67;48.14;99571.34;10339521;28;20125;-60
2023/04/11 20:05:00;;;;;;;7.82;2.67;;;;;;;9.61;48.39;99567.31;10346354;28;21415;-60
2023/04/11 20:10:02;;;;;;;5.88;2.40;;;;;;;9.59;48.47;99563.13;10346299;28;20056;-60
2023/04/11 20:15:05;;;;;;;6.07;2.42;;;;;;;9.71;48.38;99549.34;10351960;28;20132;-60
2023/04/11 20:20:07;;;;;;;7.10;2.15;;;;;;;9.73;48.73;99538.81;10336337;28;20619;-60
2023/04/11 20:25:12;;;;;;;9.65;2.90;;;;;;;9.54;49.22;99534.69;10340351;28;20268;-60
2023/04/11 20:30:16;;;;;;;8.43;2.70;;;;;;;9.40;49.75;99537.31;10341387;28;20080;-60
2023/04/11 20:35:18;;;;;;;8.30;2.78;;;;;;;9.24;50.05;99533.94;10342469;28;20092;-60
2023/04/11 20:40:20;;;;;;;7.03;2.45;;;;;;;9.29;50.03;99524.09;10345776;28;20156;-60
2023/04/11 20:45:24;;;;;;;10.43;3.35;;;;;;;9.23;50.42;99507.97;10338080;28;20529;-60
2023/04/11 20:50:32;;;;;;;8.20;2.70;;;;;;;9.17;50.73;99516.16;10340697;28;20457;-60
2023/04/11 20:55:33;;;;;;;7.05;2.83;;;;;;;9.03;50.98;99501.34;10346842;28;20046;-60
2023/04/11 21:00:35;;;;;;;10.32;2.33;;;;;;;9.04;50.86;99489.13;10343857;28;20030;-60
2023/04/11 21:05:42;;;;;;;7.90;3.00;;;;;;;9.05;50.96;99493.41;10335222;28;20057;-60
2023/04/11 21:10:44;;;;;;;9.75;2.90;;;;;;;9.07;51.18;99487.19;10340201;28;20581;-60
2023/04/11 21:15:46;;;;;;;9.25;2.72;;;;;;;9.02;51.49;99486.63;10337080;28;20049;-60
2023/04/11 21:20:48;;;;;;;10.80;2.70;;;;;;;8.96;51.58;99465.28;10341140;28;20050;-60
2023/04/11 21:25:50;;;;;;;8.35;2.63;;;;;;;8.97;51.58;99462.59;10340992;28;20418;-60
2023/04/11 21:30:52;;;;;;;8.70;2.67;;;;;;;9.02;51.60;99457.91;10342858;28;20057;-60
2023/04/11 21:35:54;;;;;;;13.13;3.40;;;;;;;9.04;51.61;99440.41;10348485;28;20046;-60
2023/04/11 21:40:56;;;;;;;11.93;2.90;;;;;;;9.10;51.50;99444.41;10344429;28;20056;-60
2023/04/11 21:45:59;;;;;;;10.35;2.65;;;;;;;9.07;51.41;99442.84;10340719;28;20627;-60
2023/04/11 21:51:02;;;;;;;9.50;3.25;;;;;;;9.11;51.36;99443.50;10344128;28;20678;-60
2023/04/11 21:56:06;;;;;;;10.45;3.30;;;;;;;9.11;51.55;99436.50;10345160;28;20357;-60
2023/04/11 22:01:11;;;;;;;8.00;2.70;;;;;;;9.02;51.66;99439.66;10346418;28;20045;-61
2023/04/11 22:06:13;;;;;;;12.20;2.97;;;;;;;8.98;51.78;99426.91;10348175;28;20042;-60
2023/04/11 22:11:16;;;;;;;10.15;2.70;;;;;;;8.88;52.12;99424.03;10345726;28;20053;-60
2023/04/11 22:16:18;;;;;;;9.70;2.80;;;;;;;8.97;51.88;99418.25;10357843;28;20061;-60
2023/04/11 22:21:20;;;;;;;10.82;2.60;;;;;;;8.90;52.25;99414.34;10348382;28;20150;-60
2023/04/11 22:26:32;;;;;;;7.03;2.42;;;;;;;8.92;52.42;99416.84;10350197;28;20050;-60
2023/04/11 22:31:37;;;;;;;9.73;2.65;;;;;;;8.88;52.42;99405.75;10345811;28;20050;-60
2023/04/11 22:36:39;;;;;;;9.40;2.63;;;;;;;8.90;52.61;99390.03;10349133;28;20058;-60
2023/04/11 22:41:41;;;;;;;12.43;3.08;;;;;;;8.85;52.55;99379.91;10345325;28;20256;-60
2023/04/11 22:46:59;;;;;;;12.98;2.60;;;;;;;8.41;53.90;99377.34;10350732;28;20037;-60
2023/04/11 22:52:01;;;;;;;9.82;2.60;;;;;;;8.46;53.54;99374.47;10344772;28;20152;-60
2023/04/11 22:57:02;;;;;;;12.65;2.50;;;;;;;8.60;53.25;99362.31;10351891;28;20046;-60
2023/04/11 23:02:04;;;;;;;15.10;2.55;;;;;;;8.68;53.27;99354.00;10349043;28;20215;-60
2023/04/11 23:07:07;;;;;;;10.23;2.47;;;;;;;8.70;53.12;99358.19;10359914;28;20050;-60
2023/04/11 23:12:09;;;;;;;13.27;3.00;;;;;;;8.58;53.29;99347.69;10343097;28;20069;-60
2023/04/11 23:17:14;;;;;;;10.48;3.00;;;;;;;8.61;53.26;99337.06;10345011;28;20042;-60
2023/04/11 23:22:17;;;;;;;14.43;3.00;;;;;;;8.62;53.41;99323.09;10357813;28;20391;-60
2023/04/11 23:27:19;;;;;;;11.95;2.80;;;;;;;8.69;53.54;99319.16;10343596;28;20132;-60
2023/04/11 23:32:21;;;;;;;7.88;2.70;;;;;;;8.67;53.91;99305.41;10355728;28;20046;-60
2023/04/11 23:37:26;;;;;;;9.85;2.70;;;;;;;8.72;53.95;99304.19;10348278;28;20236;-60